createdAt,value
2022-08-17T00:00:43.601Z,22.60
2022-08-17T00:01:51.313Z,22.55
2022-08-17T00:02:42.794Z,22.62
2022-08-17T00:03:34.124Z,22.60
2022-08-17T00:04:33.096Z,22.55
2022-08-17T00:05:33.089Z,22.57
2022-08-17T00:06:33.071Z,22.59
2022-08-17T00:07:33.062Z,22.55
2022-08-17T00:08:33.072Z,22.59
2022-08-17T00:09:33.053Z,22.57
2022-08-17T00:10:33.038Z,22.51
2022-08-17T00:11:33.016Z,22.48
2022-08-17T00:12:40.911Z,22.39
2022-08-17T00:13:34.006Z,22.38
2022-08-17T00:14:32.985Z,22.48
2022-08-17T00:15:32.995Z,22.50
2022-08-17T00:16:55.611Z,22.41
2022-08-17T00:17:33.946Z,22.33
2022-08-17T00:19:01.133Z,22.33
2022-08-17T00:19:33.939Z,22.36
2022-08-17T00:20:34.935Z,22.30
2022-08-17T00:22:28.600Z,22.26
2022-08-17T00:22:36.366Z,22.20
2022-08-17T00:23:32.903Z,22.23
2022-08-17T00:24:32.873Z,22.25
2022-08-17T00:25:32.859Z,22.23
2022-08-17T00:26:43.701Z,22.22
2022-08-17T00:27:33.844Z,22.25
2022-08-17T00:28:33.346Z,22.25
2022-08-17T00:29:32.825Z,22.23
2022-08-17T00:30:52.850Z,22.28
2022-08-17T00:31:33.816Z,22.22
2022-08-17T00:33:22.894Z,22.28
2022-08-17T00:33:33.808Z,22.26
2022-08-17T00:34:32.781Z,22.22
2022-08-17T00:35:32.745Z,22.15
2022-08-17T00:36:32.739Z,22.22
2022-08-17T00:37:32.725Z,22.26
2022-08-17T00:38:32.714Z,22.18
2022-08-17T00:39:32.827Z,22.22
2022-08-17T00:40:40.592Z,22.29
2022-08-17T00:41:33.678Z,22.28
2022-08-17T00:42:32.676Z,22.20
2022-08-17T00:43:32.669Z,22.17
2022-08-17T00:44:32.646Z,22.13
2022-08-17T00:45:32.656Z,22.18
2022-08-17T00:46:32.628Z,22.20
2022-08-17T00:47:32.611Z,22.11
2022-08-17T00:48:32.607Z,22.08
2022-08-17T00:49:32.605Z,21.99
2022-08-17T00:50:32.588Z,21.98
2022-08-17T00:51:32.570Z,21.95
2022-08-17T00:52:32.557Z,21.83
2022-08-17T00:53:32.549Z,21.89
2022-08-17T00:54:32.536Z,21.83
2022-08-17T00:55:32.545Z,21.82
2022-08-17T00:56:32.515Z,21.82
2022-08-17T00:57:32.505Z,21.76
2022-08-17T00:58:36.162Z,21.76
2022-08-17T00:59:32.482Z,21.80
2022-08-17T01:00:32.530Z,21.72
2022-08-17T01:01:32.511Z,21.67
2022-08-17T01:02:34.365Z,21.75
2022-08-17T01:03:33.475Z,21.77
2022-08-17T01:04:32.429Z,21.70
2022-08-17T01:05:32.423Z,21.73
2022-08-17T01:06:32.404Z,21.75
2022-08-17T01:07:32.395Z,21.72
2022-08-17T01:08:33.381Z,21.73
2022-08-17T01:09:32.368Z,21.79
2022-08-17T01:10:57.116Z,21.75
2022-08-17T01:11:33.362Z,21.73
2022-08-17T01:12:32.334Z,21.67
2022-08-17T01:13:36.726Z,21.70
2022-08-17T01:14:33.319Z,21.73
2022-08-17T01:15:32.305Z,21.80
2022-08-17T01:16:32.290Z,21.79
2022-08-17T01:17:32.281Z,21.85
2022-08-17T01:18:32.275Z,21.89
2022-08-17T01:19:32.250Z,21.83
2022-08-17T01:20:32.260Z,21.91
2022-08-17T01:21:33.232Z,21.95
2022-08-17T01:22:32.220Z,21.93
2022-08-17T01:23:32.222Z,21.83
2022-08-17T01:24:33.752Z,21.80
2022-08-17T01:25:32.197Z,21.77
2022-08-17T01:26:32.174Z,21.72
2022-08-17T01:27:32.165Z,21.70
2022-08-17T01:28:36.401Z,21.67
2022-08-17T01:29:33.141Z,21.60
2022-08-17T01:30:57.013Z,21.72
2022-08-17T01:31:33.118Z,21.73
2022-08-17T01:32:32.115Z,21.55
2022-08-17T01:33:32.099Z,21.60
2022-08-17T01:34:42.716Z,21.62
2022-08-17T01:35:33.084Z,21.54
2022-08-17T01:36:32.074Z,21.52
2022-08-17T01:37:32.052Z,21.50
2022-08-17T01:38:32.104Z,21.52
2022-08-17T01:39:32.084Z,21.52
2022-08-17T01:40:32.035Z,21.48
2022-08-17T01:41:32.006Z,21.46
2022-08-17T01:42:31.994Z,21.48
2022-08-17T01:43:31.984Z,21.50
2022-08-17T01:44:31.993Z,21.52
2022-08-17T01:45:31.957Z,21.52
2022-08-17T01:46:31.959Z,21.51
2022-08-17T01:47:31.937Z,21.55
2022-08-17T01:48:31.926Z,21.52
2022-08-17T01:49:31.912Z,21.60
2022-08-17T01:50:31.918Z,21.62
2022-08-17T01:51:31.895Z,21.60
2022-08-17T01:52:31.896Z,21.60
2022-08-17T01:53:31.873Z,21.58
2022-08-17T01:54:31.864Z,21.61
2022-08-17T01:55:31.861Z,21.58
2022-08-17T01:56:31.845Z,21.55
2022-08-17T01:57:31.821Z,21.66
2022-08-17T01:58:31.841Z,21.55
2022-08-17T01:59:31.803Z,21.57
2022-08-17T02:00:46.778Z,21.61
2022-08-17T02:01:32.875Z,21.66
2022-08-17T02:02:31.772Z,21.57
2022-08-17T02:03:31.767Z,21.55
2022-08-17T02:04:31.746Z,21.61
2022-08-17T02:05:31.753Z,21.52
2022-08-17T02:06:45.155Z,21.61
2022-08-17T02:07:32.707Z,21.55
2022-08-17T02:08:38.104Z,21.43
2022-08-17T02:09:32.698Z,21.46
2022-08-17T02:10:33.970Z,21.42
2022-08-17T02:11:31.704Z,21.40
2022-08-17T02:12:38.300Z,21.46
2022-08-17T02:13:32.642Z,21.43
2022-08-17T02:14:31.636Z,21.45
2022-08-17T02:15:31.639Z,21.43
2022-08-17T02:16:37.575Z,21.36
2022-08-17T02:17:32.620Z,21.42
2022-08-17T02:18:31.583Z,21.32
2022-08-17T02:19:31.576Z,21.21
2022-08-17T02:20:41.850Z,21.30
2022-08-17T02:21:32.551Z,21.21
2022-08-17T02:22:31.558Z,21.32
2022-08-17T02:23:31.538Z,21.22
2022-08-17T02:25:01.188Z,21.37
2022-08-17T02:25:32.518Z,21.33
2022-08-17T02:26:31.518Z,21.33
2022-08-17T02:27:31.517Z,21.24
2022-08-17T02:28:31.479Z,21.22
2022-08-17T02:29:31.463Z,21.27
2022-08-17T02:30:50.199Z,21.27
2022-08-17T02:31:32.458Z,21.24
2022-08-17T02:32:31.442Z,21.32
2022-08-17T02:33:41.667Z,21.21
2022-08-17T02:34:32.413Z,21.36
2022-08-17T02:35:31.392Z,21.32
2022-08-17T02:36:31.396Z,21.36
2022-08-17T02:37:31.373Z,21.32
2022-08-17T02:38:31.392Z,21.36
2022-08-17T02:39:31.383Z,21.33
2022-08-17T02:40:35.987Z,21.30
2022-08-17T02:41:32.341Z,21.27
2022-08-17T02:42:31.322Z,21.25
2022-08-17T02:43:31.320Z,21.25
2022-08-17T02:44:39.045Z,21.32
2022-08-17T02:45:32.285Z,21.29
2022-08-17T02:46:31.284Z,21.18
2022-08-17T02:47:31.281Z,21.18
2022-08-17T02:48:32.058Z,21.20
2022-08-17T02:49:31.254Z,21.32
2022-08-17T02:50:31.229Z,21.17
2022-08-17T02:51:31.214Z,21.29
2022-08-17T02:52:53.520Z,21.15
2022-08-17T02:53:35.987Z,21.25
2022-08-17T02:54:39.653Z,21.24
2022-08-17T02:55:32.165Z,21.18
2022-08-17T02:56:31.167Z,21.17
2022-08-17T02:57:31.163Z,21.12
2022-08-17T02:58:34.929Z,21.15
2022-08-17T02:59:31.142Z,21.06
2022-08-17T03:00:31.123Z,21.07
2022-08-17T03:01:31.166Z,21.02
2022-08-17T03:02:31.106Z,20.99
2022-08-17T03:03:31.086Z,21.03
2022-08-17T03:04:31.070Z,20.97
2022-08-17T03:05:31.078Z,21.03
2022-08-17T03:06:31.059Z,21.00
2022-08-17T03:07:31.056Z,21.02
2022-08-17T03:08:31.030Z,21.05
2022-08-17T03:09:31.011Z,20.97
2022-08-17T03:10:31.004Z,21.00
2022-08-17T03:11:30.991Z,20.96
2022-08-17T03:12:30.985Z,20.95
2022-08-17T03:13:31.019Z,21.00
2022-08-17T03:14:30.962Z,20.99
2022-08-17T03:15:30.944Z,20.96
2022-08-17T03:16:30.942Z,20.96
2022-08-17T03:17:30.926Z,21.03
2022-08-17T03:18:30.938Z,20.96
2022-08-17T03:19:30.901Z,21.06
2022-08-17T03:20:30.895Z,21.05
2022-08-17T03:21:30.877Z,20.99
2022-08-17T03:22:36.828Z,21.02
2022-08-17T03:23:31.889Z,21.03
2022-08-17T03:24:30.849Z,21.03
2022-08-17T03:25:30.835Z,21.03
2022-08-17T03:26:30.823Z,21.02
2022-08-17T03:27:30.817Z,20.99
2022-08-17T03:28:31.272Z,21.03
2022-08-17T03:29:30.794Z,20.99
2022-08-17T03:30:30.781Z,20.99
2022-08-17T03:31:30.766Z,21.02
2022-08-17T03:32:30.760Z,21.02
2022-08-17T03:33:30.755Z,20.95
2022-08-17T03:34:30.742Z,20.96
2022-08-17T03:35:30.732Z,20.96
2022-08-17T03:36:30.715Z,20.99
2022-08-17T03:37:31.704Z,20.96
2022-08-17T03:38:39.383Z,21.02
2022-08-17T03:39:31.773Z,20.99
2022-08-17T03:40:55.920Z,20.95
2022-08-17T03:41:31.651Z,20.93
2022-08-17T03:42:31.508Z,21.03
2022-08-17T03:43:30.631Z,21.02
2022-08-17T03:44:30.635Z,20.99
2022-08-17T03:45:30.625Z,20.96
2022-08-17T03:46:34.229Z,21.00
2022-08-17T03:47:30.587Z,20.96
2022-08-17T03:48:30.581Z,20.96
2022-08-17T03:49:30.561Z,20.99
2022-08-17T03:50:30.571Z,20.87
2022-08-17T03:51:33.383Z,20.95
2022-08-17T03:52:30.539Z,20.90
2022-08-17T03:53:30.517Z,20.84
2022-08-17T03:54:30.509Z,20.87
2022-08-17T03:55:36.318Z,20.85
2022-08-17T03:56:31.506Z,20.80
2022-08-17T03:57:30.479Z,20.88
2022-08-17T03:58:30.468Z,20.77
2022-08-17T03:59:30.455Z,20.70
2022-08-17T04:00:30.451Z,20.75
2022-08-17T04:01:30.493Z,20.80
2022-08-17T04:02:30.426Z,20.70
2022-08-17T04:03:30.410Z,20.75
2022-08-17T04:04:30.394Z,20.80
2022-08-17T04:05:30.380Z,20.74
2022-08-17T04:06:30.391Z,20.74
2022-08-17T04:07:30.367Z,20.74
2022-08-17T04:08:30.356Z,20.74
2022-08-17T04:09:30.346Z,20.75
2022-08-17T04:10:30.332Z,20.70
2022-08-17T04:11:30.314Z,20.77
2022-08-17T04:12:30.343Z,20.69
2022-08-17T04:13:30.299Z,20.72
2022-08-17T04:14:30.287Z,20.77
2022-08-17T04:15:30.274Z,20.69
2022-08-17T04:16:30.267Z,20.74
2022-08-17T04:17:30.249Z,20.75
2022-08-17T04:18:30.256Z,20.77
2022-08-17T04:19:30.226Z,20.72
2022-08-17T04:20:30.221Z,20.72
2022-08-17T04:21:30.200Z,20.74
2022-08-17T04:22:34.226Z,20.70
2022-08-17T04:23:30.190Z,20.70
2022-08-17T04:24:30.168Z,20.74
2022-08-17T04:25:30.162Z,20.77
2022-08-17T04:26:53.261Z,20.74
2022-08-17T04:27:31.158Z,20.72
2022-08-17T04:28:30.144Z,20.69
2022-08-17T04:29:30.492Z,20.74
2022-08-17T04:30:31.106Z,20.75
2022-08-17T04:31:30.095Z,20.77
2022-08-17T04:33:02.896Z,20.78
2022-08-17T04:33:31.096Z,20.74
2022-08-17T04:34:30.063Z,20.74
2022-08-17T04:35:30.043Z,20.78
2022-08-17T04:36:30.036Z,20.78
2022-08-17T04:37:30.035Z,20.78
2022-08-17T04:38:30.016Z,20.72
2022-08-17T04:39:30.097Z,20.70
2022-08-17T04:40:30.042Z,20.74
2022-08-17T04:41:29.980Z,20.70
2022-08-17T04:42:29.969Z,20.78
2022-08-17T04:43:29.968Z,20.72
2022-08-17T04:44:36.972Z,20.70
2022-08-17T04:45:31.999Z,20.72
2022-08-17T04:46:29.921Z,20.72
2022-08-17T04:47:29.919Z,20.62
2022-08-17T04:48:36.550Z,20.56
2022-08-17T04:49:30.903Z,20.62
2022-08-17T04:50:29.878Z,20.65
2022-08-17T04:51:29.883Z,20.65
2022-08-17T04:52:43.280Z,20.59
2022-08-17T04:53:30.851Z,20.67
2022-08-17T04:54:29.833Z,20.63
2022-08-17T04:55:29.824Z,20.62
2022-08-17T04:56:29.827Z,20.74
2022-08-17T04:57:29.808Z,20.70
2022-08-17T04:58:30.790Z,20.75
2022-08-17T04:59:29.784Z,20.74
2022-08-17T05:00:29.769Z,20.78
2022-08-17T05:01:29.814Z,20.69
2022-08-17T05:02:29.746Z,20.75
2022-08-17T05:03:29.744Z,20.74
2022-08-17T05:04:34.312Z,20.78
2022-08-17T05:05:31.198Z,20.70
2022-08-17T05:06:29.712Z,20.75
2022-08-17T05:07:31.695Z,20.72
2022-08-17T05:08:29.681Z,20.72
2022-08-17T05:09:29.712Z,20.74
2022-08-17T05:10:29.652Z,20.72
2022-08-17T05:11:29.643Z,20.77
2022-08-17T05:12:29.636Z,20.85
2022-08-17T05:13:29.638Z,20.85
2022-08-17T05:14:32.862Z,20.92
2022-08-17T05:15:29.602Z,20.90
2022-08-17T05:16:29.597Z,20.82
2022-08-17T05:17:29.585Z,20.85
2022-08-17T05:18:29.596Z,20.88
2022-08-17T05:19:29.557Z,20.93
2022-08-17T05:20:29.541Z,20.90
2022-08-17T05:21:29.539Z,20.85
2022-08-17T05:22:29.523Z,20.82
2022-08-17T05:23:39.126Z,20.96
2022-08-17T05:24:43.178Z,20.96
2022-08-17T05:25:32.766Z,20.96
2022-08-17T05:26:29.577Z,20.95
2022-08-17T05:27:29.814Z,21.00
2022-08-17T05:28:30.468Z,20.96
2022-08-17T05:29:35.240Z,20.99
2022-08-17T05:30:30.432Z,20.92
2022-08-17T05:31:29.575Z,20.95
2022-08-17T05:32:39.626Z,20.97
2022-08-17T05:33:30.404Z,20.96
2022-08-17T05:34:29.390Z,20.92
2022-08-17T05:35:29.393Z,21.05
2022-08-17T05:36:43.349Z,20.96
2022-08-17T05:37:30.354Z,20.99
2022-08-17T05:38:29.350Z,21.02
2022-08-17T05:39:29.403Z,21.00
2022-08-17T05:40:32.634Z,21.03
2022-08-17T05:41:29.314Z,21.00
2022-08-17T05:42:29.299Z,21.09
2022-08-17T05:43:29.298Z,21.07
2022-08-17T05:44:29.291Z,21.15
2022-08-17T05:45:54.416Z,21.29
2022-08-17T05:46:30.251Z,21.21
2022-08-17T05:47:29.242Z,21.20
2022-08-17T05:48:39.479Z,21.29
2022-08-17T05:49:30.229Z,21.32
2022-08-17T05:50:29.892Z,21.36
2022-08-17T05:51:29.198Z,21.27
2022-08-17T05:52:29.200Z,21.32
2022-08-17T05:53:29.176Z,21.43
2022-08-17T05:54:29.163Z,21.42
2022-08-17T05:55:29.174Z,21.45
2022-08-17T05:56:30.018Z,21.43
2022-08-17T05:57:29.164Z,21.33
2022-08-17T05:58:29.141Z,21.50
2022-08-17T05:59:29.107Z,21.45
2022-08-17T06:00:30.551Z,21.46
2022-08-17T06:01:29.222Z,21.46
2022-08-17T06:02:29.074Z,21.42
2022-08-17T06:03:29.079Z,21.42
2022-08-17T06:04:29.064Z,21.42
2022-08-17T06:05:29.047Z,21.46
2022-08-17T06:06:31.459Z,21.55
2022-08-17T06:07:29.021Z,21.43
2022-08-17T06:08:29.020Z,21.55
2022-08-17T06:09:33.469Z,21.57
2022-08-17T06:10:29.080Z,21.64
2022-08-17T06:11:28.993Z,21.75
2022-08-17T06:12:28.964Z,21.62
2022-08-17T06:13:28.975Z,21.70
2022-08-17T06:14:28.937Z,21.91
2022-08-17T06:15:28.933Z,21.93
2022-08-17T06:16:34.455Z,22.08
2022-08-17T06:17:29.911Z,22.22
2022-08-17T06:18:28.889Z,22.14
2022-08-17T06:19:28.893Z,22.28
2022-08-17T06:20:28.873Z,22.26
2022-08-17T06:21:32.172Z,22.44
2022-08-17T06:22:28.847Z,22.43
2022-08-17T06:23:28.838Z,22.62
2022-08-17T06:24:28.836Z,22.70
2022-08-17T06:25:28.835Z,22.83
2022-08-17T06:26:30.402Z,22.94
2022-08-17T06:27:29.789Z,23.13
2022-08-17T06:28:28.786Z,23.05
2022-08-17T06:29:28.766Z,23.15
2022-08-17T06:30:28.766Z,23.12
2022-08-17T06:31:29.744Z,23.18
2022-08-17T06:32:28.733Z,23.43
2022-08-17T06:33:28.739Z,23.62
2022-08-17T06:34:28.711Z,23.77
2022-08-17T06:35:31.960Z,23.84
2022-08-17T06:36:28.690Z,24.05
2022-08-17T06:37:28.681Z,24.17
2022-08-17T06:38:37.523Z,24.29
2022-08-17T06:39:29.746Z,24.47
2022-08-17T06:40:28.654Z,24.42
2022-08-17T06:41:28.639Z,24.54
2022-08-17T06:42:54.716Z,24.61
2022-08-17T06:43:29.614Z,24.60
2022-08-17T06:44:42.335Z,24.58
2022-08-17T06:45:29.617Z,24.35
2022-08-17T06:46:28.578Z,24.16
2022-08-17T06:47:29.289Z,24.10
2022-08-17T06:48:28.557Z,24.14
2022-08-17T06:49:28.559Z,24.02
2022-08-17T06:50:28.540Z,24.20
2022-08-17T06:51:28.544Z,24.21
2022-08-17T06:52:42.198Z,24.30
2022-08-17T06:53:29.510Z,24.42
2022-08-17T06:54:28.489Z,24.54
2022-08-17T06:55:28.477Z,24.89
2022-08-17T06:56:54.855Z,25.11
2022-08-17T06:57:29.457Z,25.28
2022-08-17T06:58:29.558Z,25.41
2022-08-17T06:59:34.776Z,25.84
2022-08-17T07:00:29.511Z,25.90
2022-08-17T07:01:28.500Z,25.98
2022-08-17T07:02:28.893Z,26.15
2022-08-17T07:03:29.404Z,26.22
2022-08-17T07:04:28.379Z,26.25
2022-08-17T07:05:28.370Z,26.36
2022-08-17T07:06:28.368Z,26.36
2022-08-17T07:07:28.343Z,26.36
2022-08-17T07:08:32.055Z,26.36
2022-08-17T07:09:29.324Z,26.36
2022-08-17T07:10:28.307Z,26.19
2022-08-17T07:11:28.304Z,25.91
2022-08-17T07:12:28.300Z,25.77
2022-08-17T07:13:28.290Z,25.69
2022-08-17T07:14:28.266Z,25.54
2022-08-17T07:15:28.255Z,25.38
2022-08-17T07:16:28.242Z,25.22
2022-08-17T07:17:46.779Z,25.11
2022-08-17T07:18:29.242Z,25.11
2022-08-17T07:19:28.210Z,25.10
2022-08-17T07:20:28.199Z,25.08
2022-08-17T07:21:28.188Z,25.14
2022-08-17T07:22:28.172Z,25.26
2022-08-17T07:23:28.178Z,25.38
2022-08-17T07:24:30.132Z,25.47
2022-08-17T07:25:28.145Z,25.48
2022-08-17T07:26:28.129Z,25.44
2022-08-17T07:27:28.123Z,25.55
2022-08-17T07:28:28.129Z,25.60
2022-08-17T07:29:28.108Z,25.73
2022-08-17T07:30:28.086Z,25.88
2022-08-17T07:31:28.078Z,25.90
2022-08-17T07:32:28.060Z,25.95
2022-08-17T07:33:28.055Z,25.91
2022-08-17T07:34:29.209Z,25.95
2022-08-17T07:35:31.284Z,25.90
2022-08-17T07:36:30.195Z,25.81
2022-08-17T07:37:28.013Z,25.84
2022-08-17T07:38:28.021Z,25.91
2022-08-17T07:39:28.189Z,25.88
2022-08-17T07:40:28.130Z,25.95
2022-08-17T07:41:52.892Z,25.96
2022-08-17T07:42:28.952Z,26.02
2022-08-17T07:43:29.615Z,26.16
2022-08-17T07:44:27.963Z,26.13
2022-08-17T07:45:27.926Z,26.19
2022-08-17T07:46:27.918Z,26.18
2022-08-17T07:47:27.903Z,26.10
2022-08-17T07:48:27.938Z,26.25
2022-08-17T07:49:27.879Z,26.37
2022-08-17T07:50:27.862Z,26.37
2022-08-17T07:51:27.861Z,26.45
2022-08-17T07:52:50.948Z,26.41
2022-08-17T07:53:28.859Z,26.43
2022-08-17T07:54:27.821Z,26.47
2022-08-17T07:55:27.812Z,26.43
2022-08-17T07:56:27.796Z,26.43
2022-08-17T07:57:30.103Z,26.34
2022-08-17T07:58:27.804Z,26.33
2022-08-17T07:59:33.308Z,26.26
2022-08-17T08:00:32.192Z,26.18
2022-08-17T08:01:41.018Z,26.16
2022-08-17T08:02:29.539Z,26.09
2022-08-17T08:03:28.739Z,26.02
2022-08-17T08:04:59.256Z,26.03
2022-08-17T08:06:41.609Z,26.05
2022-08-17T08:07:41.598Z,26.05
2022-08-17T08:08:41.597Z,25.98
2022-08-17T08:09:41.586Z,25.98
2022-08-17T08:10:42.733Z,26.07
2022-08-17T08:11:44.309Z,26.19
2022-08-17T08:12:41.543Z,26.07
2022-08-17T08:13:41.540Z,26.13
2022-08-17T08:14:41.520Z,26.18
2022-08-17T08:15:45.256Z,26.15
2022-08-17T08:16:42.505Z,26.15
2022-08-17T08:17:41.510Z,26.07
2022-08-17T08:18:55.361Z,26.28
2022-08-17T08:19:42.465Z,26.22
2022-08-17T08:20:53.305Z,26.31
2022-08-17T08:21:42.452Z,26.26
2022-08-17T08:22:41.983Z,26.26
2022-08-17T08:23:41.430Z,26.25
2022-08-17T08:24:41.415Z,26.33
2022-08-17T08:25:41.407Z,26.37
2022-08-17T08:26:41.403Z,26.36
2022-08-17T08:27:41.372Z,26.45
2022-08-17T08:28:41.397Z,26.36
2022-08-17T08:29:41.350Z,26.25
2022-08-17T08:30:41.362Z,26.28
2022-08-17T08:31:42.458Z,26.31
2022-08-17T08:32:41.329Z,26.31
2022-08-17T08:33:41.311Z,26.22
2022-08-17T08:34:45.031Z,26.28
2022-08-17T08:35:42.296Z,26.33
2022-08-17T08:37:15.863Z,26.29
2022-08-17T08:37:43.369Z,26.26
2022-08-17T08:38:41.271Z,26.13
2022-08-17T08:39:41.326Z,26.07
2022-08-17T08:40:41.253Z,26.10
2022-08-17T08:41:41.226Z,26.16
2022-08-17T08:42:41.217Z,25.99
2022-08-17T08:43:41.202Z,26.02
2022-08-17T08:45:00.351Z,26.00
2022-08-17T08:45:42.176Z,26.03
2022-08-17T08:46:41.169Z,25.96
2022-08-17T08:47:41.155Z,25.99
2022-08-17T08:48:56.653Z,25.93
2022-08-17T08:50:05.395Z,25.99
2022-08-17T08:50:42.124Z,25.98
2022-08-17T08:51:41.123Z,25.93
2022-08-17T08:52:41.107Z,25.93
2022-08-17T08:53:41.095Z,25.96
2022-08-17T08:54:41.105Z,25.98
2022-08-17T08:55:41.071Z,25.98
2022-08-17T08:56:53.779Z,25.99
2022-08-17T08:57:42.062Z,25.95
2022-08-17T08:58:41.963Z,25.96
2022-08-17T08:59:42.136Z,25.91
2022-08-17T09:00:41.022Z,25.99
2022-08-17T09:01:41.060Z,25.87
2022-08-17T09:02:41.002Z,25.87
2022-08-17T09:03:52.177Z,25.99
2022-08-17T09:05:10.733Z,26.00
2022-08-17T09:05:41.980Z,25.99
2022-08-17T09:06:40.959Z,26.03
2022-08-17T09:07:40.969Z,26.13
2022-08-17T09:08:40.937Z,26.10
2022-08-17T09:09:40.921Z,26.19
2022-08-17T09:10:40.926Z,26.10
2022-08-17T09:12:02.498Z,26.21
2022-08-17T09:12:41.898Z,26.15
2022-08-17T09:13:40.870Z,26.16
2022-08-17T09:14:45.439Z,26.13
2022-08-17T09:15:41.871Z,26.26
2022-08-17T09:16:40.841Z,26.13
2022-08-17T09:17:40.829Z,26.18
2022-08-17T09:18:59.866Z,26.25
2022-08-17T09:19:41.808Z,26.26
2022-08-17T09:20:40.808Z,26.26
2022-08-17T09:21:48.015Z,26.21
2022-08-17T09:22:41.785Z,26.26
2022-08-17T09:23:40.777Z,26.36
2022-08-17T09:24:40.760Z,26.48
2022-08-17T09:25:40.754Z,26.41
2022-08-17T09:26:40.736Z,26.45
2022-08-17T09:27:40.719Z,26.52
2022-08-17T09:28:40.712Z,26.56
2022-08-17T09:29:40.697Z,26.66
2022-08-17T09:30:40.704Z,26.84
2022-08-17T09:31:47.017Z,26.80
2022-08-17T09:32:41.668Z,26.90
2022-08-17T09:33:40.654Z,26.78
2022-08-17T09:34:40.646Z,26.93
2022-08-17T09:35:40.642Z,27.10
2022-08-17T09:36:40.643Z,27.30
2022-08-17T09:37:40.619Z,27.51
2022-08-17T09:38:40.607Z,27.65
2022-08-17T09:39:40.764Z,27.83
2022-08-17T09:40:40.584Z,27.90
2022-08-17T09:41:49.018Z,27.92
2022-08-17T09:42:41.566Z,27.93
2022-08-17T09:43:40.547Z,27.85
2022-08-17T09:44:40.541Z,27.77
2022-08-17T09:45:40.552Z,27.77
2022-08-17T09:46:40.530Z,27.77
2022-08-17T09:47:40.503Z,27.82
2022-08-17T09:48:40.498Z,27.75
2022-08-17T09:49:40.487Z,27.82
2022-08-17T09:51:03.139Z,27.80
2022-08-17T09:51:41.468Z,27.86
2022-08-17T09:52:40.459Z,27.77
2022-08-17T09:53:40.442Z,27.89
2022-08-17T09:54:40.903Z,27.93
2022-08-17T09:55:40.415Z,27.90
2022-08-17T09:56:45.989Z,27.83
2022-08-17T09:57:41.405Z,27.85
2022-08-17T09:58:40.387Z,27.65
2022-08-17T09:59:40.369Z,27.67
2022-08-17T10:00:40.408Z,27.67
2022-08-17T10:01:40.412Z,27.51
2022-08-17T10:02:40.360Z,27.45
2022-08-17T10:03:40.331Z,27.45
2022-08-17T10:04:40.320Z,27.44
2022-08-17T10:05:40.310Z,27.30
2022-08-17T10:06:40.303Z,27.39
2022-08-17T10:07:40.298Z,27.37
2022-08-17T10:08:40.293Z,27.33
2022-08-17T10:09:40.274Z,27.29
2022-08-17T10:10:41.852Z,27.33
2022-08-17T10:11:45.546Z,27.32
2022-08-17T10:12:47.153Z,27.26
2022-08-17T10:13:41.233Z,27.32
2022-08-17T10:14:44.307Z,27.21
2022-08-17T10:15:42.581Z,27.21
2022-08-17T10:16:40.192Z,27.26
2022-08-17T10:17:40.181Z,27.27
2022-08-17T10:18:40.191Z,27.33
2022-08-17T10:19:40.171Z,27.20
2022-08-17T10:20:40.148Z,27.25
2022-08-17T10:21:40.231Z,27.21
2022-08-17T10:22:40.129Z,27.12
2022-08-17T10:23:40.121Z,27.15
2022-08-17T10:24:40.122Z,27.12
2022-08-17T10:25:55.863Z,27.15
2022-08-17T10:26:55.994Z,27.14
2022-08-17T10:27:41.070Z,27.17
2022-08-17T10:28:40.062Z,27.11
2022-08-17T10:29:44.172Z,27.05
2022-08-17T10:30:41.044Z,27.03
2022-08-17T10:31:40.102Z,27.03
2022-08-17T10:32:40.020Z,27.11
2022-08-17T10:33:40.015Z,27.00
2022-08-17T10:34:41.248Z,27.03
2022-08-17T10:35:39.981Z,27.08
2022-08-17T10:36:39.980Z,27.00
2022-08-17T10:37:39.959Z,27.00
2022-08-17T10:38:39.951Z,27.00
2022-08-17T10:39:51.952Z,26.99
2022-08-17T10:40:40.930Z,26.85
2022-08-17T10:41:40.603Z,26.85
2022-08-17T10:42:39.911Z,26.80
2022-08-17T10:43:39.893Z,26.90
2022-08-17T10:44:41.510Z,26.88
2022-08-17T10:45:39.888Z,26.90
2022-08-17T10:46:39.862Z,26.84
2022-08-17T10:47:54.885Z,26.84
2022-08-17T10:48:40.867Z,26.96
2022-08-17T10:49:39.835Z,26.81
2022-08-17T10:50:39.840Z,26.93
2022-08-17T10:51:39.806Z,26.84
2022-08-17T10:52:39.798Z,26.93
2022-08-17T10:53:40.400Z,26.96
2022-08-17T10:54:39.777Z,26.97
2022-08-17T10:55:39.770Z,27.00
2022-08-17T10:56:39.764Z,26.95
2022-08-17T10:57:39.740Z,26.96
2022-08-17T10:58:39.734Z,26.95
2022-08-17T10:59:39.718Z,26.99
2022-08-17T11:00:39.765Z,26.96
2022-08-17T11:01:39.694Z,26.95
2022-08-17T11:02:39.699Z,26.95
2022-08-17T11:03:39.689Z,26.97
2022-08-17T11:04:39.673Z,26.93
2022-08-17T11:05:43.524Z,26.95
2022-08-17T11:06:39.652Z,26.97
2022-08-17T11:07:39.644Z,26.97
2022-08-17T11:08:39.637Z,27.02
2022-08-17T11:09:39.614Z,27.08
2022-08-17T11:10:39.623Z,27.03
2022-08-17T11:11:39.587Z,27.03
2022-08-17T11:12:39.581Z,26.99
2022-08-17T11:13:39.574Z,27.05
2022-08-17T11:14:39.562Z,27.11
2022-08-17T11:15:39.556Z,27.07
2022-08-17T11:16:39.543Z,27.05
2022-08-17T11:17:39.528Z,27.03
2022-08-17T11:18:39.536Z,27.11
2022-08-17T11:19:39.507Z,27.17
2022-08-17T11:20:39.493Z,27.07
2022-08-17T11:21:39.491Z,27.17
2022-08-17T11:22:39.470Z,27.11
2022-08-17T11:23:39.461Z,27.12
2022-08-17T11:24:39.458Z,27.15
2022-08-17T11:25:39.456Z,27.15
2022-08-17T11:26:39.444Z,27.15
2022-08-17T11:27:39.440Z,27.14
2022-08-17T11:28:39.426Z,27.22
2022-08-17T11:29:39.404Z,27.21
2022-08-17T11:30:39.388Z,27.07
2022-08-17T11:31:39.984Z,27.17
2022-08-17T11:32:47.104Z,27.21
2022-08-17T11:33:40.360Z,27.15
2022-08-17T11:34:39.345Z,27.14
2022-08-17T11:35:39.334Z,27.21
2022-08-17T11:36:39.326Z,27.15
2022-08-17T11:37:39.308Z,27.17
2022-08-17T11:38:39.314Z,27.22
2022-08-17T11:39:39.321Z,27.32
2022-08-17T11:40:39.280Z,27.27
2022-08-17T11:41:39.270Z,27.33
2022-08-17T11:42:39.260Z,27.20
2022-08-17T11:43:42.714Z,27.26
2022-08-17T11:44:39.246Z,27.29
2022-08-17T11:45:39.224Z,27.33
2022-08-17T11:46:39.211Z,27.33
2022-08-17T11:47:39.203Z,27.37
2022-08-17T11:48:39.192Z,27.35
2022-08-17T11:49:40.053Z,27.36
2022-08-17T11:50:39.172Z,27.35
2022-08-17T11:51:39.155Z,27.39
2022-08-17T11:52:39.154Z,27.36
2022-08-17T11:53:39.135Z,27.35
2022-08-17T11:54:39.137Z,27.30
2022-08-17T11:55:43.131Z,27.39
2022-08-17T11:56:40.104Z,27.48
2022-08-17T11:57:39.095Z,27.42
2022-08-17T11:58:39.086Z,27.42
2022-08-17T11:59:39.082Z,27.45
2022-08-17T12:00:39.062Z,27.49
2022-08-17T12:01:39.048Z,27.45
2022-08-17T12:02:39.073Z,27.47
2022-08-17T12:03:39.029Z,27.42
2022-08-17T12:04:39.150Z,27.42
2022-08-17T12:05:39.007Z,27.47
2022-08-17T12:06:39.001Z,27.44
2022-08-17T12:07:38.982Z,27.47
2022-08-17T12:08:38.992Z,27.40
2022-08-17T12:09:38.964Z,27.39
2022-08-17T12:10:38.968Z,27.39
2022-08-17T12:12:01.542Z,27.45
2022-08-17T12:12:39.935Z,27.44
2022-08-17T12:13:39.921Z,27.44
2022-08-17T12:15:09.089Z,27.42
2022-08-17T12:15:39.917Z,27.42
2022-08-17T12:16:38.886Z,27.49
2022-08-17T12:17:41.271Z,27.42
2022-08-17T12:18:38.870Z,27.36
2022-08-17T12:19:38.861Z,27.42
2022-08-17T12:20:38.856Z,27.40
2022-08-17T12:21:38.843Z,27.47
2022-08-17T12:22:38.836Z,27.40
2022-08-17T12:23:38.810Z,27.44
2022-08-17T12:24:38.802Z,27.48
2022-08-17T12:25:38.808Z,27.48
2022-08-17T12:26:38.779Z,27.42
2022-08-17T12:27:56.823Z,27.45
2022-08-17T12:28:39.764Z,27.40
2022-08-17T12:29:39.326Z,27.48
2022-08-17T12:30:38.754Z,27.47
2022-08-17T12:31:38.735Z,27.45
2022-08-17T12:32:38.739Z,27.39
2022-08-17T12:33:38.708Z,27.37
2022-08-17T12:34:38.709Z,27.35
2022-08-17T12:35:38.682Z,27.35
2022-08-17T12:36:38.682Z,27.29
2022-08-17T12:37:38.664Z,27.30
2022-08-17T12:38:38.649Z,27.35
2022-08-17T12:39:38.679Z,27.33
2022-08-17T12:40:38.644Z,27.33
2022-08-17T12:41:38.632Z,27.26
2022-08-17T12:42:38.603Z,27.36
2022-08-17T12:43:38.598Z,27.35
2022-08-17T12:44:46.115Z,27.35
2022-08-17T12:45:39.574Z,27.29
2022-08-17T12:46:38.587Z,27.51
2022-08-17T12:47:38.569Z,27.42
2022-08-17T12:48:38.539Z,27.42
2022-08-17T12:49:38.535Z,27.33
2022-08-17T12:50:38.519Z,27.35
2022-08-17T12:51:38.511Z,27.37
2022-08-17T12:52:38.522Z,27.35
2022-08-17T12:53:38.484Z,27.39